EZY11AE LGKR-LIRN
Flight info
| Callsign | EZY11AE |
|---|---|
| Flight time | 0h 59m |
| Altitude | 36000 |
| Route | OLGAT DCT DOGUS DCT EKTOL |
| Aircraft | B736/M-SDE2E3FGHIRWXY/LB1 |
Departure
| Time | 2026-05-06 16:43 |
|---|---|
| Airport | Corfu Ioannis Kapodistrias International Airport (LGKR) |
Arrival
| Time | 2026-05-06 17:42 |
|---|---|
| Airport | Naples International Airport (LIRN) |
| Time | Latitude | Longitude | Altitude | Speed | Heading |
|---|---|---|---|---|---|
| 2026-05-06 16:24 | 39.60553 | 19.91392 | 18 ft | 0 kts | 79° |
| 2026-05-06 16:35 | 39.60551 | 19.91378 | 20 ft | 2 kts | 79° |
| 2026-05-06 16:35 | 39.60548 | 19.91357 | 18 ft | 2 kts | 80° |
| 2026-05-06 16:36 | 39.60549 | 19.91336 | 18 ft | 2 kts | 127° |
| 2026-05-06 16:36 | 39.60561 | 19.91321 | 19 ft | 2 kts | 143° |
| 2026-05-06 16:36 | 39.60574 | 19.91308 | 19 ft | 2 kts | 139° |
| 2026-05-06 16:36 | 39.60587 | 19.91294 | 18 ft | 2 kts | 139° |
| 2026-05-06 16:37 | 39.60599 | 19.91280 | 19 ft | 2 kts | 139° |
| 2026-05-06 16:37 | 39.60612 | 19.91266 | 18 ft | 2 kts | 139° |
| 2026-05-06 16:37 | 39.60624 | 19.91252 | 18 ft | 2 kts | 139° |
| 2026-05-06 16:37 | 39.60637 | 19.91239 | 18 ft | 2 kts | 147° |
| 2026-05-06 16:38 | 39.60652 | 19.91230 | 20 ft | 2 kts | 166° |
| 2026-05-06 16:38 | 39.60658 | 19.91228 | 17 ft | 0 kts | 169° |
| 2026-05-06 16:39 | 39.60652 | 19.91229 | 20 ft | 4 kts | 171° |
| 2026-05-06 16:39 | 39.60600 | 19.91219 | 18 ft | 9 kts | 213° |
| 2026-05-06 16:39 | 39.60536 | 19.91165 | 20 ft | 13 kts | 202° |
| 2026-05-06 16:40 | 39.60468 | 19.91149 | 18 ft | 17 kts | 181° |
| 2026-05-06 16:40 | 39.60328 | 19.91178 | 19 ft | 24 kts | 168° |
| 2026-05-06 16:40 | 39.60145 | 19.91225 | 22 ft | 30 kts | 168° |
| 2026-05-06 16:40 | 39.59934 | 19.91280 | 21 ft | 31 kts | 168° |
| 2026-05-06 16:41 | 39.59725 | 19.91334 | 19 ft | 31 kts | 168° |
| 2026-05-06 16:41 | 39.59512 | 19.91390 | 17 ft | 31 kts | 169° |
| 2026-05-06 16:41 | 39.59300 | 19.91444 | 16 ft | 31 kts | 168° |
| 2026-05-06 16:41 | 39.59168 | 19.91441 | 16 ft | 12 kts | 178° |
| 2026-05-06 16:42 | 39.59171 | 19.91508 | 16 ft | 11 kts | 359° |
| 2026-05-06 16:42 | 39.59229 | 19.91463 | 17 ft | 0 kts | 346° |
| 2026-05-06 16:42 | 39.59230 | 19.91463 | 17 ft | 2 kts | 346° |
| 2026-05-06 16:42 | 39.59324 | 19.91438 | 18 ft | 25 kts | 349° |
| 2026-05-06 16:43 | 39.59722 | 19.91335 | 19 ft | 103 kts | 348° |
| 2026-05-06 16:43 | 39.60684 | 19.91088 | 109 ft | 170 kts | 348° |
| 2026-05-06 16:43 | 39.61853 | 19.90805 | 1084 ft | 167 kts | 348° |
| 2026-05-06 16:43 | 39.62970 | 19.90497 | 2195 ft | 160 kts | 346° |
| 2026-05-06 16:44 | 39.64120 | 19.90161 | 2861 ft | 186 kts | 341° |
| 2026-05-06 16:44 | 39.65247 | 19.89116 | 3280 ft | 214 kts | 303° |
| 2026-05-06 16:44 | 39.65682 | 19.87282 | 4082 ft | 218 kts | 272° |
| 2026-05-06 16:44 | 39.65695 | 19.85295 | 5107 ft | 220 kts | 268° |
| 2026-05-06 16:45 | 39.65665 | 19.83287 | 6003 ft | 227 kts | 268° |
| 2026-05-06 16:45 | 39.65633 | 19.81241 | 7045 ft | 227 kts | 272° |
| 2026-05-06 16:45 | 39.66065 | 19.79304 | 7994 ft | 233 kts | 300° |
| 2026-05-06 16:45 | 39.67108 | 19.77534 | 8450 ft | 264 kts | 311° |
| 2026-05-06 16:46 | 39.68429 | 19.75740 | 9141 ft | 280 kts | 314° |
| 2026-05-06 16:46 | 39.69807 | 19.73933 | 10182 ft | 283 kts | 314° |
| 2026-05-06 16:46 | 39.71222 | 19.72071 | 10828 ft | 301 kts | 314° |
| 2026-05-06 16:46 | 39.72761 | 19.70022 | 11055 ft | 332 kts | 313° |
| 2026-05-06 16:47 | 39.74416 | 19.67796 | 11558 ft | 348 kts | 313° |
| 2026-05-06 16:47 | 39.76112 | 19.65500 | 12429 ft | 354 kts | 313° |
| 2026-05-06 16:47 | 39.77819 | 19.63177 | 13356 ft | 357 kts | 313° |
| 2026-05-06 16:47 | 39.79523 | 19.60852 | 14176 ft | 362 kts | 313° |
| 2026-05-06 16:48 | 39.81269 | 19.58467 | 15019 ft | 364 kts | 313° |
| 2026-05-06 16:48 | 39.83016 | 19.56077 | 15912 ft | 365 kts | 313° |
| 2026-05-06 16:48 | 39.84772 | 19.53674 | 16755 ft | 367 kts | 313° |
| 2026-05-06 16:48 | 39.86551 | 19.51255 | 17567 ft | 370 kts | 313° |
| 2026-05-06 16:49 | 39.88355 | 19.48832 | 18366 ft | 373 kts | 313° |
| 2026-05-06 16:49 | 39.90172 | 19.46400 | 19065 ft | 376 kts | 313° |
| 2026-05-06 16:49 | 39.91978 | 19.43982 | 19749 ft | 379 kts | 313° |
| 2026-05-06 16:49 | 39.93826 | 19.41503 | 20437 ft | 382 kts | 313° |
| 2026-05-06 16:50 | 39.95682 | 19.39010 | 21116 ft | 384 kts | 313° |
| 2026-05-06 16:50 | 39.97549 | 19.36498 | 21776 ft | 387 kts | 313° |
| 2026-05-06 16:50 | 39.99436 | 19.33955 | 22440 ft | 390 kts | 313° |
| 2026-05-06 16:50 | 40.01328 | 19.31404 | 23076 ft | 393 kts | 313° |
| 2026-05-06 16:51 | 40.03239 | 19.28823 | 23699 ft | 397 kts | 313° |
| 2026-05-06 16:51 | 40.05163 | 19.26223 | 24247 ft | 399 kts | 313° |
| 2026-05-06 16:51 | 40.07093 | 19.23612 | 24833 ft | 400 kts | 313° |
| 2026-05-06 16:51 | 40.09032 | 19.20988 | 25404 ft | 402 kts | 313° |
| 2026-05-06 16:52 | 40.10950 | 19.18388 | 25942 ft | 404 kts | 312° |
| 2026-05-06 16:52 | 40.12907 | 19.15735 | 26466 ft | 406 kts | 312° |
| 2026-05-06 16:52 | 40.14870 | 19.13070 | 26985 ft | 408 kts | 312° |
| 2026-05-06 16:52 | 40.16844 | 19.10388 | 27495 ft | 410 kts | 312° |
| 2026-05-06 16:53 | 40.18831 | 19.07686 | 27989 ft | 412 kts | 311° |
| 2026-05-06 16:53 | 40.20822 | 19.04977 | 28467 ft | 414 kts | 311° |
| 2026-05-06 16:53 | 40.22825 | 19.02245 | 28948 ft | 416 kts | 310° |
| 2026-05-06 16:53 | 40.24555 | 18.99220 | 29361 ft | 416 kts | 298° |
| 2026-05-06 16:54 | 40.25682 | 18.95745 | 29824 ft | 416 kts | 289° |
| 2026-05-06 16:54 | 40.26592 | 18.92155 | 30423 ft | 413 kts | 288° |
| 2026-05-06 16:54 | 40.27459 | 18.88575 | 31008 ft | 410 kts | 288° |
| 2026-05-06 16:54 | 40.28304 | 18.85059 | 31468 ft | 410 kts | 288° |
| 2026-05-06 16:55 | 40.29163 | 18.81504 | 31895 ft | 410 kts | 288° |
| 2026-05-06 16:55 | 40.30033 | 18.77943 | 32367 ft | 409 kts | 288° |
| 2026-05-06 16:55 | 40.30904 | 18.74405 | 32867 ft | 407 kts | 289° |
| 2026-05-06 16:55 | 40.31777 | 18.70875 | 33336 ft | 406 kts | 289° |
| 2026-05-06 16:56 | 40.32651 | 18.67355 | 33746 ft | 406 kts | 289° |
| 2026-05-06 16:56 | 40.33523 | 18.63842 | 34161 ft | 405 kts | 289° |
| 2026-05-06 16:56 | 40.34393 | 18.60338 | 34527 ft | 404 kts | 289° |
| 2026-05-06 16:56 | 40.35265 | 18.56823 | 34832 ft | 405 kts | 289° |
| 2026-05-06 16:57 | 40.36135 | 18.53307 | 35133 ft | 405 kts | 289° |
| 2026-05-06 16:57 | 40.37005 | 18.49789 | 35411 ft | 406 kts | 288° |
| 2026-05-06 16:57 | 40.37877 | 18.46256 | 35723 ft | 406 kts | 288° |
| 2026-05-06 16:57 | 40.38735 | 18.42778 | 36030 ft | 406 kts | 288° |
| 2026-05-06 16:58 | 40.39609 | 18.39225 | 36025 ft | 411 kts | 288° |
| 2026-05-06 16:58 | 40.41360 | 18.32093 | 36034 ft | 409 kts | 288° |
| 2026-05-06 16:59 | 40.43082 | 18.25057 | 36043 ft | 403 kts | 288° |
| 2026-05-06 16:59 | 40.44791 | 18.18053 | 36045 ft | 403 kts | 288° |
| 2026-05-06 17:00 | 40.46497 | 18.11042 | 36041 ft | 403 kts | 288° |
| 2026-05-06 17:00 | 40.48199 | 18.04029 | 36025 ft | 403 kts | 288° |
| 2026-05-06 17:01 | 40.49895 | 17.97016 | 36025 ft | 403 kts | 288° |
| 2026-05-06 17:01 | 40.51587 | 17.89997 | 36022 ft | 403 kts | 288° |
| 2026-05-06 17:02 | 40.53275 | 17.82977 | 36024 ft | 402 kts | 288° |
| 2026-05-06 17:02 | 40.54957 | 17.75962 | 36020 ft | 402 kts | 288° |
| 2026-05-06 17:03 | 40.56620 | 17.69000 | 36020 ft | 401 kts | 288° |
| 2026-05-06 17:03 | 40.58290 | 17.61990 | 36038 ft | 401 kts | 288° |
| 2026-05-06 17:04 | 40.59952 | 17.54993 | 36042 ft | 400 kts | 288° |
| 2026-05-06 17:04 | 40.61608 | 17.48002 | 36048 ft | 399 kts | 287° |
| 2026-05-06 17:05 | 40.63257 | 17.41018 | 36044 ft | 399 kts | 287° |
| 2026-05-06 17:05 | 40.64897 | 17.34050 | 36044 ft | 398 kts | 287° |
| 2026-05-06 17:06 | 40.66523 | 17.27117 | 36037 ft | 398 kts | 287° |
| 2026-05-06 17:06 | 40.68153 | 17.20152 | 36015 ft | 398 kts | 287° |
| 2026-05-06 17:07 | 40.69779 | 17.13179 | 36019 ft | 398 kts | 287° |
| 2026-05-06 17:07 | 40.71400 | 17.06206 | 36023 ft | 398 kts | 287° |
| 2026-05-06 17:08 | 40.73018 | 16.99226 | 36019 ft | 398 kts | 287° |
| 2026-05-06 17:08 | 40.74632 | 16.92242 | 36025 ft | 398 kts | 287° |
| 2026-05-06 17:09 | 40.76229 | 16.85309 | 36021 ft | 397 kts | 287° |
| 2026-05-06 17:09 | 40.77831 | 16.78335 | 36019 ft | 397 kts | 286° |
| 2026-05-06 17:10 | 40.79428 | 16.71357 | 36015 ft | 397 kts | 286° |
| 2026-05-06 17:10 | 40.81024 | 16.64365 | 35974 ft | 398 kts | 286° |
| 2026-05-06 17:11 | 40.82615 | 16.57372 | 35971 ft | 398 kts | 286° |
| 2026-05-06 17:11 | 40.84203 | 16.50371 | 35972 ft | 398 kts | 286° |
| 2026-05-06 17:12 | 40.85787 | 16.43364 | 35964 ft | 398 kts | 286° |
| 2026-05-06 17:12 | 40.87366 | 16.36358 | 35969 ft | 398 kts | 286° |
| 2026-05-06 17:13 | 40.88944 | 16.29335 | 35971 ft | 398 kts | 285° |
| 2026-05-06 17:13 | 40.90508 | 16.22348 | 35689 ft | 403 kts | 285° |
| 2026-05-06 17:13 | 40.91308 | 16.18767 | 35040 ft | 405 kts | 285° |
| 2026-05-06 17:14 | 40.92105 | 16.15193 | 34280 ft | 404 kts | 285° |
| 2026-05-06 17:14 | 40.92899 | 16.11630 | 33416 ft | 405 kts | 285° |
| 2026-05-06 17:14 | 40.93694 | 16.08053 | 32553 ft | 405 kts | 285° |
| 2026-05-06 17:14 | 40.94488 | 16.04474 | 31788 ft | 404 kts | 285° |
| 2026-05-06 17:15 | 40.95272 | 16.00941 | 31207 ft | 398 kts | 284° |
| 2026-05-06 17:15 | 40.96046 | 15.97442 | 30628 ft | 394 kts | 284° |
| 2026-05-06 17:15 | 40.96812 | 15.93975 | 30062 ft | 390 kts | 284° |
| 2026-05-06 17:15 | 40.97569 | 15.90545 | 29407 ft | 386 kts | 284° |
| 2026-05-06 17:16 | 40.98306 | 15.87195 | 28843 ft | 381 kts | 284° |
| 2026-05-06 17:16 | 40.99042 | 15.83850 | 28277 ft | 376 kts | 284° |
| 2026-05-06 17:16 | 40.99768 | 15.80542 | 27701 ft | 372 kts | 284° |
| 2026-05-06 17:16 | 41.00485 | 15.77271 | 27145 ft | 368 kts | 284° |
| 2026-05-06 17:17 | 41.01195 | 15.74026 | 26590 ft | 365 kts | 284° |
| 2026-05-06 17:17 | 41.01898 | 15.70809 | 26040 ft | 362 kts | 283° |
| 2026-05-06 17:17 | 41.02518 | 15.67587 | 25513 ft | 360 kts | 281° |
| 2026-05-06 17:17 | 41.03063 | 15.64355 | 24989 ft | 360 kts | 280° |
| 2026-05-06 17:18 | 41.03587 | 15.61110 | 24447 ft | 362 kts | 280° |
| 2026-05-06 17:18 | 41.04117 | 15.57809 | 23880 ft | 369 kts | 280° |
| 2026-05-06 17:18 | 41.04658 | 15.54467 | 23269 ft | 372 kts | 280° |
| 2026-05-06 17:18 | 41.05206 | 15.51120 | 22637 ft | 369 kts | 280° |
| 2026-05-06 17:19 | 41.05750 | 15.47817 | 22062 ft | 365 kts | 280° |
| 2026-05-06 17:19 | 41.06282 | 15.44592 | 21505 ft | 361 kts | 280° |
| 2026-05-06 17:19 | 41.06815 | 15.41358 | 20970 ft | 358 kts | 280° |
| 2026-05-06 17:19 | 41.07344 | 15.38148 | 20433 ft | 355 kts | 281° |
| 2026-05-06 17:20 | 41.07868 | 15.34958 | 19895 ft | 353 kts | 281° |
| 2026-05-06 17:20 | 41.08388 | 15.31784 | 19376 ft | 351 kts | 281° |
| 2026-05-06 17:20 | 41.08905 | 15.28633 | 18842 ft | 349 kts | 281° |
| 2026-05-06 17:20 | 41.09418 | 15.25496 | 18315 ft | 348 kts | 280° |
| 2026-05-06 17:21 | 41.09928 | 15.22367 | 17758 ft | 346 kts | 281° |
| 2026-05-06 17:21 | 41.10167 | 15.19229 | 17208 ft | 341 kts | 264° |
| 2026-05-06 17:21 | 41.09635 | 15.16201 | 16845 ft | 334 kts | 249° |
| 2026-05-06 17:21 | 41.08505 | 15.13538 | 16632 ft | 333 kts | 233° |
| 2026-05-06 17:22 | 41.07002 | 15.11148 | 16404 ft | 342 kts | 230° |
| 2026-05-06 17:22 | 41.05409 | 15.08771 | 16151 ft | 346 kts | 229° |
| 2026-05-06 17:22 | 41.03837 | 15.06430 | 15899 ft | 344 kts | 230° |
| 2026-05-06 17:22 | 41.02267 | 15.04058 | 15663 ft | 341 kts | 230° |
| 2026-05-06 17:23 | 41.00713 | 15.01685 | 15421 ft | 340 kts | 230° |
| 2026-05-06 17:23 | 40.99166 | 14.99315 | 15173 ft | 339 kts | 230° |
| 2026-05-06 17:23 | 40.97623 | 14.96953 | 14943 ft | 338 kts | 230° |
| 2026-05-06 17:23 | 40.96079 | 14.94590 | 14692 ft | 338 kts | 230° |
| 2026-05-06 17:24 | 40.94562 | 14.92270 | 14497 ft | 336 kts | 228° |
| 2026-05-06 17:24 | 40.93041 | 14.89946 | 14257 ft | 332 kts | 228° |
| 2026-05-06 17:24 | 40.91533 | 14.87645 | 14018 ft | 330 kts | 228° |
| 2026-05-06 17:24 | 40.90025 | 14.85347 | 13779 ft | 331 kts | 228° |
| 2026-05-06 17:25 | 40.88521 | 14.83051 | 13507 ft | 327 kts | 229° |
| 2026-05-06 17:25 | 40.87206 | 14.80640 | 13222 ft | 318 kts | 237° |
| 2026-05-06 17:25 | 40.86085 | 14.78167 | 12978 ft | 309 kts | 238° |
| 2026-05-06 17:25 | 40.85004 | 14.75765 | 12749 ft | 300 kts | 238° |
| 2026-05-06 17:26 | 40.83935 | 14.73443 | 12548 ft | 291 kts | 237° |
| 2026-05-06 17:26 | 40.82892 | 14.71193 | 12348 ft | 283 kts | 240° |
| 2026-05-06 17:26 | 40.82307 | 14.68751 | 12145 ft | 280 kts | 264° |
| 2026-05-06 17:26 | 40.82530 | 14.66245 | 11934 ft | 272 kts | 287° |
| 2026-05-06 17:27 | 40.83408 | 14.64093 | 11752 ft | 264 kts | 306° |
| 2026-05-06 17:27 | 40.84266 | 14.62957 | 11659 ft | 266 kts | 320° |
| 2026-05-06 17:27 | 40.86327 | 14.61175 | 11422 ft | 268 kts | 326° |
| 2026-05-06 17:27 | 40.87985 | 14.60019 | 11212 ft | 272 kts | 341° |
| 2026-05-06 17:28 | 40.89873 | 14.59867 | 11023 ft | 276 kts | 11° |
| 2026-05-06 17:28 | 40.91064 | 14.60442 | 10918 ft | 276 kts | 31° |
| 2026-05-06 17:28 | 40.92439 | 14.62171 | 10765 ft | 273 kts | 56° |
| 2026-05-06 17:28 | 40.93448 | 14.64286 | 10616 ft | 272 kts | 60° |
| 2026-05-06 17:29 | 40.94737 | 14.67134 | 10383 ft | 272 kts | 59° |
| 2026-05-06 17:29 | 40.95401 | 14.68585 | 10275 ft | 273 kts | 59° |
| 2026-05-06 17:29 | 40.96392 | 14.70732 | 10111 ft | 274 kts | 59° |
| 2026-05-06 17:29 | 40.97386 | 14.72871 | 9929 ft | 271 kts | 59° |
| 2026-05-06 17:30 | 40.98364 | 14.74969 | 9724 ft | 264 kts | 58° |
| 2026-05-06 17:30 | 40.99313 | 14.77000 | 9588 ft | 262 kts | 58° |
| 2026-05-06 17:30 | 41.00267 | 14.79042 | 9440 ft | 259 kts | 58° |
| 2026-05-06 17:30 | 41.01212 | 14.81068 | 9279 ft | 258 kts | 58° |
| 2026-05-06 17:31 | 41.02158 | 14.83095 | 9143 ft | 260 kts | 58° |
| 2026-05-06 17:31 | 41.03178 | 14.85082 | 8965 ft | 263 kts | 45° |
| 2026-05-06 17:31 | 41.04709 | 14.86341 | 8802 ft | 259 kts | 14° |
| 2026-05-06 17:31 | 41.06449 | 14.86433 | 8666 ft | 248 kts | 345° |
| 2026-05-06 17:32 | 41.08025 | 14.85602 | 8535 ft | 241 kts | 328° |
| 2026-05-06 17:32 | 41.09454 | 14.84457 | 8398 ft | 239 kts | 325° |
| 2026-05-06 17:32 | 41.10835 | 14.83242 | 8242 ft | 237 kts | 316° |
| 2026-05-06 17:32 | 41.11751 | 14.81488 | 8087 ft | 230 kts | 285° |
| 2026-05-06 17:33 | 41.11885 | 14.79422 | 7958 ft | 224 kts | 258° |
| 2026-05-06 17:33 | 41.11354 | 14.77519 | 7818 ft | 220 kts | 240° |
| 2026-05-06 17:33 | 41.10555 | 14.75780 | 7708 ft | 223 kts | 237° |
| 2026-05-06 17:33 | 41.09724 | 14.74057 | 7581 ft | 226 kts | 237° |
| 2026-05-06 17:34 | 41.08862 | 14.72256 | 7439 ft | 230 kts | 237° |
| 2026-05-06 17:34 | 41.08019 | 14.70475 | 7304 ft | 231 kts | 237° |
| 2026-05-06 17:34 | 41.07183 | 14.68700 | 7170 ft | 221 kts | 237° |
| 2026-05-06 17:34 | 41.06395 | 14.67023 | 7047 ft | 208 kts | 237° |
| 2026-05-06 17:35 | 41.05642 | 14.65417 | 6786 ft | 202 kts | 237° |
| 2026-05-06 17:35 | 41.04915 | 14.63859 | 6524 ft | 195 kts | 237° |
| 2026-05-06 17:35 | 41.04212 | 14.62352 | 6249 ft | 191 kts | 237° |
| 2026-05-06 17:36 | 41.02833 | 14.59403 | 5709 ft | 185 kts | 237° |
| 2026-05-06 17:36 | 41.02159 | 14.57961 | 5504 ft | 182 kts | 237° |
| 2026-05-06 17:36 | 41.01494 | 14.56541 | 5258 ft | 183 kts | 237° |
| 2026-05-06 17:36 | 41.00821 | 14.55101 | 5255 ft | 186 kts | 237° |
| 2026-05-06 17:37 | 41.00127 | 14.53617 | 5034 ft | 195 kts | 237° |
| 2026-05-06 17:37 | 40.99398 | 14.52060 | 4495 ft | 198 kts | 237° |
| 2026-05-06 17:37 | 40.98696 | 14.50556 | 4127 ft | 184 kts | 237° |
| 2026-05-06 17:37 | 40.98050 | 14.49175 | 3835 ft | 170 kts | 237° |
| 2026-05-06 17:38 | 40.97446 | 14.47884 | 3578 ft | 161 kts | 237° |
| 2026-05-06 17:38 | 40.96868 | 14.46652 | 3351 ft | 156 kts | 237° |
| 2026-05-06 17:38 | 40.96313 | 14.45469 | 3163 ft | 143 kts | 238° |
| 2026-05-06 17:38 | 40.95797 | 14.44372 | 2928 ft | 137 kts | 238° |
| 2026-05-06 17:39 | 40.95294 | 14.43302 | 2739 ft | 139 kts | 239° |
| 2026-05-06 17:39 | 40.94778 | 14.42205 | 2575 ft | 138 kts | 238° |
| 2026-05-06 17:39 | 40.94255 | 14.41089 | 2396 ft | 148 kts | 238° |
| 2026-05-06 17:39 | 40.93708 | 14.39928 | 2163 ft | 150 kts | 239° |
| 2026-05-06 17:40 | 40.93158 | 14.38760 | 1937 ft | 148 kts | 238° |
| 2026-05-06 17:40 | 40.92629 | 14.37637 | 1714 ft | 139 kts | 239° |
| 2026-05-06 17:40 | 40.92124 | 14.36580 | 1508 ft | 135 kts | 238° |
| 2026-05-06 17:40 | 40.91610 | 14.35524 | 1309 ft | 139 kts | 238° |
| 2026-05-06 17:41 | 40.91099 | 14.34435 | 1104 ft | 137 kts | 239° |
| 2026-05-06 17:41 | 40.90608 | 14.33343 | 873 ft | 140 kts | 238° |
| 2026-05-06 17:41 | 40.90098 | 14.32242 | 685 ft | 143 kts | 237° |
| 2026-05-06 17:41 | 40.89585 | 14.31161 | 467 ft | 135 kts | 237° |
| 2026-05-06 17:42 | 40.89093 | 14.30115 | 264 ft | 131 kts | 238° |
| 2026-05-06 17:42 | 40.88663 | 14.29204 | 263 ft | 99 kts | 238° |
| 2026-05-06 17:42 | 40.88379 | 14.28606 | 280 ft | 55 kts | 238° |
| 2026-05-06 17:42 | 40.88214 | 14.28258 | 285 ft | 40 kts | 238° |
| 2026-05-06 17:43 | 40.88103 | 14.28028 | 293 ft | 7 kts | 221° |
| 2026-05-06 17:43 | 40.88060 | 14.28051 | 292 ft | 8 kts | 141° |
| 2026-05-06 17:43 | 40.88023 | 14.28133 | 291 ft | 13 kts | 77° |